sensor_id;sensor_type;location;lat;lon;timestamp;pressure;altitude;pressure_sealevel;temperature;humidity
7940;BME280;4015;48.888;9.226;2022-10-17T00:00:53;159026.91;;;15.06;98.28
7940;BME280;4015;48.888;9.226;2022-10-17T00:03:19;159035.91;;;15.09;97.89
7940;BME280;4015;48.888;9.226;2022-10-17T00:05:46;159041.00;;;15.11;97.83
7940;BME280;4015;48.888;9.226;2022-10-17T00:08:13;159056.38;;;15.18;98.08
7940;BME280;4015;48.888;9.226;2022-10-17T00:10:39;159061.50;;;15.20;97.74
7940;BME280;4015;48.888;9.226;2022-10-17T00:13:05;159080.75;;;15.27;97.56
7940;BME280;4015;48.888;9.226;2022-10-17T00:15:31;159102.50;;;15.36;96.60
7940;BME280;4015;48.888;9.226;2022-10-17T00:17:57;159117.88;;;15.42;96.07
7940;BME280;4015;48.888;9.226;2022-10-17T00:20:23;159131.97;;;15.48;95.33
7940;BME280;4015;48.888;9.226;2022-10-17T00:22:49;159131.97;;;15.48;94.73
7940;BME280;4015;48.888;9.226;2022-10-17T00:25:15;159124.25;;;15.45;95.06
7940;BME280;4015;48.888;9.226;2022-10-17T00:27:40;159126.81;;;15.46;94.83
7940;BME280;4015;48.888;9.226;2022-10-17T00:30:10;159111.44;;;15.39;94.72
7940;BME280;4015;48.888;9.226;2022-10-17T00:32:36;159115.31;;;15.41;94.49
7940;BME280;4015;48.888;9.226;2022-10-17T00:35:01;159115.31;;;15.41;94.39
7940;BME280;4015;48.888;9.226;2022-10-17T00:37:29;159094.78;;;15.33;95.29
7940;BME280;4015;48.888;9.226;2022-10-17T00:39:54;159107.59;;;15.38;95.37
7940;BME280;4015;48.888;9.226;2022-10-17T00:42:19;159088.41;;;15.30;96.03
7940;BME280;4015;48.888;9.226;2022-10-17T00:47:16;159057.66;;;15.18;96.74
7940;BME280;4015;48.888;9.226;2022-10-17T00:49:43;159057.66;;;15.18;96.59
7940;BME280;4015;48.888;9.226;2022-10-17T00:52:21;159038.44;;;15.10;96.86
7940;BME280;4015;48.888;9.226;2022-10-17T00:54:53;159029.47;;;15.07;96.85
7940;BME280;4015;48.888;9.226;2022-10-17T00:57:20;159043.56;;;15.13;96.59
7940;BME280;4015;48.888;9.226;2022-10-17T00:59:50;159044.84;;;15.13;95.97
7940;BME280;4015;48.888;9.226;2022-10-17T01:02:19;159044.84;;;15.13;96.03
7940;BME280;4015;48.888;9.226;2022-10-17T01:04:47;159034.63;;;15.09;96.46
7940;BME280;4015;48.888;9.226;2022-10-17T01:07:14;159039.72;;;15.11;96.54
7940;BME280;4015;48.888;9.226;2022-10-17T01:09:40;159062.75;;;15.20;96.64
7940;BME280;4015;48.888;9.226;2022-10-17T01:12:16;159050.00;;;15.15;96.72
7940;BME280;4015;48.888;9.226;2022-10-17T01:17:38;159058.94;;;15.19;97.33
7940;BME280;4015;48.888;9.226;2022-10-17T01:22:51;159048.66;;;15.15;96.82
7940;BME280;4015;48.888;9.226;2022-10-17T01:25:46;159029.47;;;15.07;97.08
7940;BME280;4015;48.888;9.226;2022-10-17T01:31:11;158980.78;;;14.88;97.20
7940;BME280;4015;48.888;9.226;2022-10-17T01:38:56;158836.06;;;14.30;100.00
7940;BME280;4015;48.888;9.226;2022-10-17T01:41:34;158855.25;;;14.38;100.00
7940;BME280;4015;48.888;9.226;2022-10-17T01:44:31;158842.44;;;14.32;100.00
7940;BME280;4015;48.888;9.226;2022-10-17T01:47:10;158875.78;;;14.46;100.00
7940;BME280;4015;48.888;9.226;2022-10-17T01:49:39;158834.78;;;14.29;100.00
7940;BME280;4015;48.888;9.226;2022-10-17T01:52:10;158821.97;;;14.24;100.00
7940;BME280;4015;48.888;9.226;2022-10-17T01:54:51;158843.75;;;14.33;100.00
7940;BME280;4015;48.888;9.226;2022-10-17T01:57:25;158796.38;;;14.14;100.00
7940;BME280;4015;48.888;9.226;2022-10-17T01:59:54;158768.22;;;14.03;100.00
7940;BME280;4015;48.888;9.226;2022-10-17T02:02:22;158738.75;;;13.91;100.00
7940;BME280;4015;48.888;9.226;2022-10-17T02:04:50;158763.06;;;14.01;100.00
7940;BME280;4015;48.888;9.226;2022-10-17T02:07:15;158795.06;;;14.14;100.00
7940;BME280;4015;48.888;9.226;2022-10-17T02:09:41;158769.50;;;14.03;100.00
7940;BME280;4015;48.888;9.226;2022-10-17T02:15:20;158720.84;;;13.84;100.00
7940;BME280;4015;48.888;9.226;2022-10-17T02:21:13;158711.88;;;13.81;100.00
7940;BME280;4015;48.888;9.226;2022-10-17T02:23:50;158704.22;;;13.77;100.00
7940;BME280;4015;48.888;9.226;2022-10-17T02:26:31;158755.41;;;13.98;100.00
7940;BME280;4015;48.888;9.226;2022-10-17T02:31:45;158772.03;;;14.04;100.00
7940;BME280;4015;48.888;9.226;2022-10-17T02:34:20;158772.03;;;14.04;100.00
7940;BME280;4015;48.888;9.226;2022-10-17T02:36:56;158759.22;;;13.99;100.00
7940;BME280;4015;48.888;9.226;2022-10-17T02:39:23;158727.22;;;13.87;100.00
7940;BME280;4015;48.888;9.226;2022-10-17T02:41:50;158693.97;;;13.73;100.00
7940;BME280;4015;48.888;9.226;2022-10-17T02:44:16;158669.63;;;13.64;100.00
7940;BME280;4015;48.888;9.226;2022-10-17T02:46:44;158709.31;;;13.80;100.00
7940;BME280;4015;48.888;9.226;2022-10-17T02:49:39;158763.06;;;14.01;100.00
7940;BME280;4015;48.888;9.226;2022-10-17T02:52:13;158774.59;;;14.06;100.00
7940;BME280;4015;48.888;9.226;2022-10-17T02:55:01;158804.03;;;14.17;100.00
7940;BME280;4015;48.888;9.226;2022-10-17T02:57:31;158811.69;;;14.20;99.47
7940;BME280;4015;48.888;9.226;2022-10-17T03:00:00;158750.31;;;13.96;100.00
7940;BME280;4015;48.888;9.226;2022-10-17T03:02:26;158677.31;;;13.67;100.00
7940;BME280;4015;48.888;9.226;2022-10-17T03:04:52;158723.41;;;13.85;100.00
7940;BME280;4015;48.888;9.226;2022-10-17T03:07:17;158713.16;;;13.81;100.00
7940;BME280;4015;48.888;9.226;2022-10-17T03:09:42;158738.75;;;13.91;100.00
7940;BME280;4015;48.888;9.226;2022-10-17T03:12:08;158760.50;;;14.00;100.00
7940;BME280;4015;48.888;9.226;2022-10-17T03:14:33;158731.06;;;13.88;100.00
7940;BME280;4015;48.888;9.226;2022-10-17T03:16:58;158713.16;;;13.81;100.00
7940;BME280;4015;48.888;9.226;2022-10-17T03:19:24;158691.41;;;13.72;100.00
7940;BME280;4015;48.888;9.226;2022-10-17T03:21:50;158687.59;;;13.71;100.00
7940;BME280;4015;48.888;9.226;2022-10-17T03:24:15;158686.31;;;13.70;100.00
7940;BME280;4015;48.888;9.226;2022-10-17T03:26:41;158681.16;;;13.68;100.00
7940;BME280;4015;48.888;9.226;2022-10-17T03:29:06;158681.16;;;13.68;100.00
7940;BME280;4015;48.888;9.226;2022-10-17T03:31:35;158676.03;;;13.66;99.96
7940;BME280;4015;48.888;9.226;2022-10-17T03:34:02;158713.16;;;13.81;99.26
7940;BME280;4015;48.888;9.226;2022-10-17T03:36:28;158705.50;;;13.78;98.76
7940;BME280;4015;48.888;9.226;2022-10-17T03:38:53;158705.50;;;13.78;98.38
7940;BME280;4015;48.888;9.226;2022-10-17T03:41:19;158693.97;;;13.73;98.27
7940;BME280;4015;48.888;9.226;2022-10-17T03:43:44;158673.50;;;13.65;98.96
7940;BME280;4015;48.888;9.226;2022-10-17T03:46:09;158684.97;;;13.70;98.81
7940;BME280;4015;48.888;9.226;2022-10-17T03:48:35;158693.97;;;13.73;98.75
7940;BME280;4015;48.888;9.226;2022-10-17T03:51:03;158695.22;;;13.74;98.58
7940;BME280;4015;48.888;9.226;2022-10-17T03:53:29;158661.97;;;13.61;98.68
7940;BME280;4015;48.888;9.226;2022-10-17T03:55:56;158618.44;;;13.43;99.37
7940;BME280;4015;48.888;9.226;2022-10-17T03:58:21;158609.50;;;13.40;100.00
7940;BME280;4015;48.888;9.226;2022-10-17T04:00:46;158586.44;;;13.31;100.00
7940;BME280;4015;48.888;9.226;2022-10-17T04:03:12;158577.53;;;13.27;100.00
7940;BME280;4015;48.888;9.226;2022-10-17T04:05:37;158536.50;;;13.11;100.00
7940;BME280;4015;48.888;9.226;2022-10-17T04:08:03;158507.06;;;12.99;100.00
7940;BME280;4015;48.888;9.226;2022-10-17T04:10:28;158521.16;;;13.05;100.00
7940;BME280;4015;48.888;9.226;2022-10-17T04:12:53;158559.56;;;13.20;100.00
7940;BME280;4015;48.888;9.226;2022-10-17T04:15:19;158595.44;;;13.34;100.00
7940;BME280;4015;48.888;9.226;2022-10-17T04:17:44;158589.00;;;13.32;100.00
7940;BME280;4015;48.888;9.226;2022-10-17T04:20:10;158601.81;;;13.37;100.00
7940;BME280;4015;48.888;9.226;2022-10-17T04:22:35;158631.25;;;13.48;100.00
7940;BME280;4015;48.888;9.226;2022-10-17T04:25:00;158633.81;;;13.49;100.00
7940;BME280;4015;48.888;9.226;2022-10-17T04:27:26;158651.72;;;13.57;100.00
7940;BME280;4015;48.888;9.226;2022-10-17T04:29:51;158691.41;;;13.72;100.00
7940;BME280;4015;48.888;9.226;2022-10-17T04:32:16;158674.78;;;13.66;100.00
7940;BME280;4015;48.888;9.226;2022-10-17T04:34:42;158669.63;;;13.64;100.00
7940;BME280;4015;48.888;9.226;2022-10-17T04:37:07;158665.78;;;13.62;100.00
7940;BME280;4015;48.888;9.226;2022-10-17T04:39:32;158635.06;;;13.50;100.00
7940;BME280;4015;48.888;9.226;2022-10-17T04:41:58;158641.50;;;13.53;100.00
7940;BME280;4015;48.888;9.226;2022-10-17T04:44:23;158587.72;;;13.31;100.00
7940;BME280;4015;48.888;9.226;2022-10-17T04:46:48;158569.81;;;13.24;100.00
7940;BME280;4015;48.888;9.226;2022-10-17T04:49:14;158509.63;;;13.00;100.00
7940;BME280;4015;48.888;9.226;2022-10-17T04:51:39;158449.53;;;12.76;100.00
7940;BME280;4015;48.888;9.226;2022-10-17T04:54:04;158498.16;;;12.95;100.00
7940;BME280;4015;48.888;9.226;2022-10-17T04:56:30;158494.28;;;12.94;100.00
7940;BME280;4015;48.888;9.226;2022-10-17T04:58:57;158519.88;;;13.04;100.00
7940;BME280;4015;48.888;9.226;2022-10-17T05:01:24;158514.78;;;13.02;100.00
7940;BME280;4015;48.888;9.226;2022-10-17T05:03:50;158476.38;;;12.87;100.00
7940;BME280;4015;48.888;9.226;2022-10-17T05:06:18;158489.16;;;12.92;100.00
7940;BME280;4015;48.888;9.226;2022-10-17T05:08:44;158478.94;;;12.88;100.00
7940;BME280;4015;48.888;9.226;2022-10-17T05:11:25;158476.38;;;12.87;100.00
7940;BME280;4015;48.888;9.226;2022-10-17T05:13:55;158439.28;;;12.72;100.00
7940;BME280;4015;48.888;9.226;2022-10-17T05:16:22;158470.00;;;12.84;100.00
7940;BME280;4015;48.888;9.226;2022-10-17T05:18:49;158467.44;;;12.83;100.00
7940;BME280;4015;48.888;9.226;2022-10-17T05:21:15;158457.19;;;12.79;100.00
7940;BME280;4015;48.888;9.226;2022-10-17T05:23:40;158416.25;;;12.63;100.00
7940;BME280;4015;48.888;9.226;2022-10-17T05:26:05;158400.91;;;12.57;100.00
7940;BME280;4015;48.888;9.226;2022-10-17T05:28:31;158416.25;;;12.63;100.00
7940;BME280;4015;48.888;9.226;2022-10-17T05:30:56;158384.28;;;12.50;100.00
7940;BME280;4015;48.888;9.226;2022-10-17T05:33:22;158397.06;;;12.55;100.00
7940;BME280;4015;48.888;9.226;2022-10-17T05:35:47;158407.31;;;12.59;100.00
7940;BME280;4015;48.888;9.226;2022-10-17T05:38:13;158454.66;;;12.78;100.00
7940;BME280;4015;48.888;9.226;2022-10-17T05:40:38;158421.41;;;12.65;100.00
7940;BME280;4015;48.888;9.226;2022-10-17T05:43:04;158430.31;;;12.68;100.00
7940;BME280;4015;48.888;9.226;2022-10-17T05:45:29;158452.09;;;12.77;100.00
7940;BME280;4015;48.888;9.226;2022-10-17T05:47:54;158484.06;;;12.90;100.00
7940;BME280;4015;48.888;9.226;2022-10-17T05:50:20;158430.31;;;12.68;100.00
7940;BME280;4015;48.888;9.226;2022-10-17T05:52:46;158431.59;;;12.69;100.00
7940;BME280;4015;48.888;9.226;2022-10-17T05:55:11;158445.66;;;12.75;100.00
7940;BME280;4015;48.888;9.226;2022-10-17T05:57:37;158453.38;;;12.78;100.00
7940;BME280;4015;48.888;9.226;2022-10-17T06:00:04;158462.28;;;12.81;100.00
7940;BME280;4015;48.888;9.226;2022-10-17T06:02:29;158509.63;;;13.00;100.00
7940;BME280;4015;48.888;9.226;2022-10-17T06:04:55;158544.22;;;13.14;100.00
7940;BME280;4015;48.888;9.226;2022-10-17T06:07:20;158571.09;;;13.25;100.00
7940;BME280;4015;48.888;9.226;2022-10-17T06:09:45;158572.38;;;13.25;99.84
7940;BME280;4015;48.888;9.226;2022-10-17T06:12:11;158597.97;;;13.35;100.00
7940;BME280;4015;48.888;9.226;2022-10-17T06:14:36;158613.34;;;13.41;100.00
7940;BME280;4015;48.888;9.226;2022-10-17T06:17:01;158618.44;;;13.43;99.84
7940;BME280;4015;48.888;9.226;2022-10-17T06:19:27;158605.63;;;13.38;100.00
7940;BME280;4015;48.888;9.226;2022-10-17T06:21:52;158594.16;;;13.34;100.00
7940;BME280;4015;48.888;9.226;2022-10-17T06:24:17;158615.88;;;13.42;100.00
7940;BME280;4015;48.888;9.226;2022-10-17T06:26:43;158627.41;;;13.47;99.97
7940;BME280;4015;48.888;9.226;2022-10-17T06:29:08;158655.59;;;13.58;99.58
7940;BME280;4015;48.888;9.226;2022-10-17T06:31:34;158617.16;;;13.43;99.65
7940;BME280;4015;48.888;9.226;2022-10-17T06:33:59;158669.63;;;13.64;99.16
7940;BME280;4015;48.888;9.226;2022-10-17T06:36:25;158658.13;;;13.59;99.07
7940;BME280;4015;48.888;9.226;2022-10-17T06:38:50;158711.88;;;13.81;98.51
7940;BME280;4015;48.888;9.226;2022-10-17T06:41:16;158720.84;;;13.84;97.95
7940;BME280;4015;48.888;9.226;2022-10-17T06:43:44;158713.16;;;13.81;97.85
7940;BME280;4015;48.888;9.226;2022-10-17T06:46:15;158718.31;;;13.83;97.97
7940;BME280;4015;48.888;9.226;2022-10-17T06:48:40;158715.69;;;13.82;98.44
7940;BME280;4015;48.888;9.226;2022-10-17T06:51:06;158733.66;;;13.89;98.09
7940;BME280;4015;48.888;9.226;2022-10-17T06:53:34;158772.03;;;14.04;97.89
7940;BME280;4015;48.888;9.226;2022-10-17T06:56:00;158798.94;;;14.15;97.32
7940;BME280;4015;48.888;9.226;2022-10-17T06:58:32;158807.88;;;14.19;97.04
7940;BME280;4015;48.888;9.226;2022-10-17T07:01:03;158851.41;;;14.36;97.74
7940;BME280;4015;48.888;9.226;2022-10-17T07:03:29;159092.22;;;15.32;96.09
7940;BME280;4015;48.888;9.226;2022-10-17T07:05:55;159560.22;;;17.18;89.38
7940;BME280;4015;48.888;9.226;2022-10-17T07:08:21;160100.56;;;19.32;78.56
7940;BME280;4015;48.888;9.226;2022-10-17T07:10:47;160516.88;;;20.97;71.59
7940;BME280;4015;48.888;9.226;2022-10-17T07:13:13;160797.19;;;22.08;67.94
7940;BME280;4015;48.888;9.226;2022-10-17T07:15:38;161023.66;;;22.98;64.70
7940;BME280;4015;48.888;9.226;2022-10-17T07:18:04;161001.81;;;22.90;64.86
7940;BME280;4015;48.888;9.226;2022-10-17T07:20:30;161126.63;;;23.39;62.53
7940;BME280;4015;48.888;9.226;2022-10-17T07:22:55;161158.78;;;23.52;62.60
7940;BME280;4015;48.888;9.226;2022-10-17T07:25:21;161167.78;;;23.55;62.15
7940;BME280;4015;48.888;9.226;2022-10-17T07:27:51;161006.94;;;22.92;62.76
7940;BME280;4015;48.888;9.226;2022-10-17T07:30:17;161000.53;;;22.89;63.48
7940;BME280;4015;48.888;9.226;2022-10-17T07:32:43;160904.00;;;22.51;64.74
7940;BME280;4015;48.888;9.226;2022-10-17T07:35:09;160759.94;;;21.94;66.19
7940;BME280;4015;48.888;9.226;2022-10-17T07:37:35;160563.16;;;21.16;69.55
7940;BME280;4015;48.888;9.226;2022-10-17T07:40:00;160358.78;;;20.35;71.71
7940;BME280;4015;48.888;9.226;2022-10-17T07:42:26;160184.09;;;19.65;73.97
7940;BME280;4015;48.888;9.226;2022-10-17T07:44:53;160077.44;;;19.23;74.82
7940;BME280;4015;48.888;9.226;2022-10-17T07:47:18;160117.25;;;19.39;76.95
7940;BME280;4015;48.888;9.226;2022-10-17T07:49:43;160160.94;;;19.56;75.65
7940;BME280;4015;48.888;9.226;2022-10-17T07:52:10;160185.38;;;19.66;76.08
7940;BME280;4015;48.888;9.226;2022-10-17T07:54:36;160100.56;;;19.32;77.86
7940;BME280;4015;48.888;9.226;2022-10-17T07:57:01;160056.91;;;19.15;79.82
7940;BME280;4015;48.888;9.226;2022-10-17T07:59:26;160053.06;;;19.13;79.31
7940;BME280;4015;48.888;9.226;2022-10-17T08:01:57;160024.81;;;19.02;79.14
7940;BME280;4015;48.888;9.226;2022-10-17T08:04:23;159997.84;;;18.92;79.76
7940;BME280;4015;48.888;9.226;2022-10-17T08:06:49;159970.91;;;18.81;79.04
7940;BME280;4015;48.888;9.226;2022-10-17T08:09:14;159992.72;;;18.90;80.37
7940;BME280;4015;48.888;9.226;2022-10-17T08:11:40;160014.56;;;18.98;80.08
7940;BME280;4015;48.888;9.226;2022-10-17T08:14:08;160040.22;;;19.08;79.39
7940;BME280;4015;48.888;9.226;2022-10-17T08:16:33;160022.25;;;19.01;78.59
7940;BME280;4015;48.888;9.226;2022-10-17T08:18:59;160017.13;;;18.99;79.53
7940;BME280;4015;48.888;9.226;2022-10-17T08:21:24;160063.34;;;19.18;79.93
7940;BME280;4015;48.888;9.226;2022-10-17T08:23:50;160124.94;;;19.42;77.56
7940;BME280;4015;48.888;9.226;2022-10-17T08:26:16;160103.13;;;19.33;78.45
7940;BME280;4015;48.888;9.226;2022-10-17T08:28:41;160114.72;;;19.38;78.01
7940;BME280;4015;48.888;9.226;2022-10-17T08:31:09;160128.84;;;19.44;79.25
7940;BME280;4015;48.888;9.226;2022-10-17T08:33:35;160106.97;;;19.35;78.36
7940;BME280;4015;48.888;9.226;2022-10-17T08:36:02;160131.41;;;19.45;78.47
7940;BME280;4015;48.888;9.226;2022-10-17T08:38:28;160181.53;;;19.64;78.22
7940;BME280;4015;48.888;9.226;2022-10-17T08:40:58;160202.06;;;19.73;79.24
7940;BME280;4015;48.888;9.226;2022-10-17T08:46:00;160313.81;;;20.17;78.32
7940;BME280;4015;48.888;9.226;2022-10-17T08:48:29;160342.06;;;20.28;75.33
7940;BME280;4015;48.888;9.226;2022-10-17T08:51:03;160345.91;;;20.30;73.59
7940;BME280;4015;48.888;9.226;2022-10-17T08:53:35;160334.38;;;20.25;75.62
7940;BME280;4015;48.888;9.226;2022-10-17T08:56:13;160415.38;;;20.57;74.02
7940;BME280;4015;48.888;9.226;2022-10-17T08:58:40;160501.47;;;20.91;72.43
7940;BME280;4015;48.888;9.226;2022-10-17T09:01:35;160432.09;;;20.64;75.61
7940;BME280;4015;48.888;9.226;2022-10-17T09:07:09;160536.16;;;21.05;76.47
7940;BME280;4015;48.888;9.226;2022-10-17T09:09:49;160613.31;;;21.36;74.18
7940;BME280;4015;48.888;9.226;2022-10-17T09:12:23;160680.16;;;21.62;71.07
7940;BME280;4015;48.888;9.226;2022-10-17T09:17:50;160658.31;;;21.53;69.59
7940;BME280;4015;48.888;9.226;2022-10-17T09:20:23;160653.19;;;21.51;68.70
7940;BME280;4015;48.888;9.226;2022-10-17T09:22:57;160658.31;;;21.53;69.75
7940;BME280;4015;48.888;9.226;2022-10-17T09:25:24;160695.59;;;21.68;71.96
7940;BME280;4015;48.888;9.226;2022-10-17T09:27:53;160741.88;;;21.87;68.82
7940;BME280;4015;48.888;9.226;2022-10-17T09:33:09;160931.00;;;22.61;71.53
7940;BME280;4015;48.888;9.226;2022-10-17T09:35:35;161003.09;;;22.90;68.29
7940;BME280;4015;48.888;9.226;2022-10-17T09:38:01;161133.03;;;23.41;65.89
7940;BME280;4015;48.888;9.226;2022-10-17T09:40:31;161260.50;;;23.92;65.04
7940;BME280;4015;48.888;9.226;2022-10-17T09:42:59;161546.44;;;25.05;62.55
7940;BME280;4015;48.888;9.226;2022-10-17T09:45:27;161641.72;;;25.43;63.49
7940;BME280;4015;48.888;9.226;2022-10-17T09:48:09;161824.75;;;26.15;60.80
7940;BME280;4015;48.888;9.226;2022-10-17T09:50:36;162065.84;;;27.10;57.60
7940;BME280;4015;48.888;9.226;2022-10-17T09:53:19;162248.97;;;27.83;55.24
7940;BME280;4015;48.888;9.226;2022-10-17T09:55:49;162405.09;;;28.44;53.65
7940;BME280;4015;48.888;9.226;2022-10-17T09:58:16;162616.69;;;29.28;51.64
7940;BME280;4015;48.888;9.226;2022-10-17T10:00:44;162708.38;;;29.64;52.97
7940;BME280;4015;48.888;9.226;2022-10-17T10:05:56;162781.97;;;29.93;49.68
7940;BME280;4015;48.888;9.226;2022-10-17T10:08:26;162980.84;;;30.72;48.71
7940;BME280;4015;48.888;9.226;2022-10-17T10:10:57;163073.84;;;31.08;47.32
7940;BME280;4015;48.888;9.226;2022-10-17T10:13:25;163094.50;;;31.16;48.40
7940;BME280;4015;48.888;9.226;2022-10-17T10:15:51;163138.47;;;31.34;47.20
7940;BME280;4015;48.888;9.226;2022-10-17T10:21:14;162780.69;;;29.93;50.10
7940;BME280;4015;48.888;9.226;2022-10-17T10:23:45;162874.97;;;30.30;48.10
7940;BME280;4015;48.888;9.226;2022-10-17T10:26:31;162996.34;;;30.78;48.91
7940;BME280;4015;48.888;9.226;2022-10-17T10:29:00;162902.06;;;30.41;48.62
7940;BME280;4015;48.888;9.226;2022-10-17T10:31:31;163004.13;;;30.81;51.83
7940;BME280;4015;48.888;9.226;2022-10-17T10:33:59;163253.44;;;31.79;48.71
7940;BME280;4015;48.888;9.226;2022-10-17T10:36:42;163231.47;;;31.71;47.45
7940;BME280;4015;48.888;9.226;2022-10-17T10:39:21;163361.97;;;32.22;47.29
7940;BME280;4015;48.888;9.226;2022-10-17T10:41:50;163497.72;;;32.75;46.10
7940;BME280;4015;48.888;9.226;2022-10-17T10:44:16;163532.66;;;32.89;45.75
7940;BME280;4015;48.888;9.226;2022-10-17T10:46:43;163722.72;;;33.64;44.14
7940;BME280;4015;48.888;9.226;2022-10-17T10:49:28;163861.06;;;34.19;45.18
7940;BME280;4015;48.888;9.226;2022-10-17T10:51:54;163934.81;;;34.48;43.78
7940;BME280;4015;48.888;9.226;2022-10-17T10:54:29;163897.28;;;34.33;42.51
7940;BME280;4015;48.888;9.226;2022-10-17T10:56:59;163973.59;;;34.63;40.49
7940;BME280;4015;48.888;9.226;2022-10-17T10:59:40;164031.81;;;34.86;42.35
7940;BME280;4015;48.888;9.226;2022-10-17T11:07:29;164178.06;;;35.44;41.79
7940;BME280;4015;48.888;9.226;2022-10-17T11:10:50;164425.31;;;36.41;41.00
7940;BME280;4015;48.888;9.226;2022-10-17T11:13:12;164269.94;;;35.80;40.24
7940;BME280;4015;48.888;9.226;2022-10-17T11:18:44;164215.63;;;35.58;40.27
7940;BME280;4015;48.888;9.226;2022-10-17T11:21:20;164200.09;;;35.52;41.11
7940;BME280;4015;48.888;9.226;2022-10-17T11:26:34;164194.88;;;35.50;41.37
7940;BME280;4015;48.888;9.226;2022-10-17T11:29:04;164128.88;;;35.24;41.02
7940;BME280;4015;48.888;9.226;2022-10-17T11:31:36;164280.28;;;35.84;41.73
7940;BME280;4015;48.888;9.226;2022-10-17T11:34:20;164324.28;;;36.01;41.25
7940;BME280;4015;48.888;9.226;2022-10-17T11:36:51;164189.72;;;35.48;41.06
7940;BME280;4015;48.888;9.226;2022-10-17T11:39:54;164449.88;;;36.51;40.31
7940;BME280;4015;48.888;9.226;2022-10-17T11:49:15;164247.94;;;35.71;40.77
7940;BME280;4015;48.888;9.226;2022-10-17T11:52:22;164135.34;;;35.27;40.87
7940;BME280;4015;48.888;9.226;2022-10-17T11:54:54;164057.75;;;34.96;43.08
7940;BME280;4015;48.888;9.226;2022-10-17T12:06:02;164137.94;;;35.28;40.73
7940;BME280;4015;48.888;9.226;2022-10-17T12:13:59;164418.75;;;36.38;39.90
7940;BME280;4015;48.888;9.226;2022-10-17T12:21:53;164387.69;;;36.26;41.81
7940;BME280;4015;48.888;9.226;2022-10-17T12:24:53;164225.94;;;35.62;37.23
7940;BME280;4015;48.888;9.226;2022-10-17T12:27:38;164130.16;;;35.25;40.04
7940;BME280;4015;48.888;9.226;2022-10-17T12:30:21;164073.28;;;35.02;39.62
7940;BME280;4015;48.888;9.226;2022-10-17T12:33:02;164211.69;;;35.57;38.42
7940;BME280;4015;48.888;9.226;2022-10-17T12:35:30;164139.22;;;35.28;37.82
7940;BME280;4015;48.888;9.226;2022-10-17T12:48:01;164081.00;;;35.05;37.66
7940;BME280;4015;48.888;9.226;2022-10-17T12:56:11;163692.97;;;33.52;41.74
7940;BME280;4015;48.888;9.226;2022-10-17T12:58:41;163296.09;;;31.96;44.09
7940;BME280;4015;48.888;9.226;2022-10-17T13:01:16;163174.59;;;31.48;44.45
7940;BME280;4015;48.888;9.226;2022-10-17T13:03:44;163058.34;;;31.02;44.96
7940;BME280;4015;48.888;9.226;2022-10-17T13:06:18;162975.72;;;30.70;45.46
7940;BME280;4015;48.888;9.226;2022-10-17T13:08:47;162853.00;;;30.21;46.01
7940;BME280;4015;48.888;9.226;2022-10-17T13:11:13;162846.56;;;30.19;45.27
7940;BME280;4015;48.888;9.226;2022-10-17T13:13:47;162912.41;;;30.45;45.66
7940;BME280;4015;48.888;9.226;2022-10-17T13:19:00;162774.22;;;29.90;46.27
7940;BME280;4015;48.888;9.226;2022-10-17T13:21:26;162851.72;;;30.21;45.76
7940;BME280;4015;48.888;9.226;2022-10-17T13:23:51;162765.19;;;29.87;45.83
7940;BME280;4015;48.888;9.226;2022-10-17T13:26:24;162765.19;;;29.87;46.68
7940;BME280;4015;48.888;9.226;2022-10-17T13:29:04;162747.13;;;29.79;45.92
7940;BME280;4015;48.888;9.226;2022-10-17T13:31:36;162646.38;;;29.40;47.34
7940;BME280;4015;48.888;9.226;2022-10-17T13:34:05;162723.88;;;29.70;47.50
7940;BME280;4015;48.888;9.226;2022-10-17T13:43:19;162513.44;;;28.87;48.74
7940;BME280;4015;48.888;9.226;2022-10-17T13:46:15;162439.91;;;28.58;49.48
7940;BME280;4015;48.888;9.226;2022-10-17T13:48:42;162278.63;;;27.94;50.40
7940;BME280;4015;48.888;9.226;2022-10-17T13:51:07;162230.91;;;27.76;51.35
7940;BME280;4015;48.888;9.226;2022-10-17T13:53:34;162303.16;;;28.04;50.06
7940;BME280;4015;48.888;9.226;2022-10-17T13:56:05;162307.03;;;28.06;50.89
7940;BME280;4015;48.888;9.226;2022-10-17T13:58:55;162272.22;;;27.92;50.24
7940;BME280;4015;48.888;9.226;2022-10-17T14:01:22;162392.19;;;28.39;49.23
7940;BME280;4015;48.888;9.226;2022-10-17T14:03:48;162445.09;;;28.60;48.78
7940;BME280;4015;48.888;9.226;2022-10-17T14:06:24;162464.44;;;28.68;49.59
7940;BME280;4015;48.888;9.226;2022-10-17T14:08:57;162381.88;;;28.35;50.35
7940;BME280;4015;48.888;9.226;2022-10-17T14:11:28;162310.88;;;28.07;50.05
7940;BME280;4015;48.888;9.226;2022-10-17T14:20:37;161909.84;;;26.49;53.20
7940;BME280;4015;48.888;9.226;2022-10-17T14:26:03;161782.22;;;25.98;55.89
7940;BME280;4015;48.888;9.226;2022-10-17T14:28:29;161743.53;;;25.83;55.38
7940;BME280;4015;48.888;9.226;2022-10-17T14:31:18;161706.16;;;25.68;54.92
7940;BME280;4015;48.888;9.226;2022-10-17T14:33:46;161608.25;;;25.29;56.06
7940;BME280;4015;48.888;9.226;2022-10-17T14:36:13;161558.03;;;25.10;56.39
7940;BME280;4015;48.888;9.226;2022-10-17T14:38:44;161564.44;;;25.12;57.21
7940;BME280;4015;48.888;9.226;2022-10-17T14:41:30;161541.25;;;25.03;57.06
7940;BME280;4015;48.888;9.226;2022-10-17T14:44:02;161550.28;;;25.07;56.87
7940;BME280;4015;48.888;9.226;2022-10-17T14:46:30;161533.50;;;25.00;57.33
7940;BME280;4015;48.888;9.226;2022-10-17T14:49:04;161533.50;;;25.00;56.03
7940;BME280;4015;48.888;9.226;2022-10-17T14:51:29;161529.63;;;24.98;57.32
7940;BME280;4015;48.888;9.226;2022-10-17T15:00:39;161411.19;;;24.52;58.31
7940;BME280;4015;48.888;9.226;2022-10-17T15:03:04;161393.13;;;24.44;58.64
7940;BME280;4015;48.888;9.226;2022-10-17T15:05:29;161406.00;;;24.49;59.92
7940;BME280;4015;48.888;9.226;2022-10-17T15:07:54;161385.44;;;24.41;60.53
7940;BME280;4015;48.888;9.226;2022-10-17T15:10:28;161344.16;;;24.25;61.35
7940;BME280;4015;48.888;9.226;2022-10-17T15:12:55;161331.31;;;24.20;61.46
7940;BME280;4015;48.888;9.226;2022-10-17T15:15:20;161296.53;;;24.06;61.88
7940;BME280;4015;48.888;9.226;2022-10-17T15:17:45;161270.81;;;23.96;60.89
7940;BME280;4015;48.888;9.226;2022-10-17T15:20:14;161265.63;;;23.94;62.02